Terminal Aerodrome Forecast
Issued by NWS Albany, NY

Home | Current Version | Previous Version | Text Only | Print | Product List | Glossary On
Versions: 1 2 3 4 5 6 7 8 9 10 11 12 13 14 15 16 17 18 19 20 21 22 23 24 25 26 27 28 29 30
000
FTUS41 KALY 250600 CCA
TAFPOU
TAF COR
KPOU 250600Z 2506/2606 17010KT P6SM VCSH OVC020
     FM250800 24010KT 3SM -SHRA SCT008 OVC020
      TEMPO 2508/2512 27010G20KT 2SM SHRA OVC008
     FM251200 25010G18KT P6SM OVC070
     FM251600 27015G25KT P6SM SCT040
     FM260000 27010KT P6SM FEW250
     FM260300 27006KT P6SM SCT030=

USA.gov is the U.S. government's official web portal to all federal, state and local government web resources and services.